Time;durP1;ratioP1;P1;durP2;ratioP2;P2;SDS_P1;SDS_P2;PMS_P1;PMS_P2;Temp;Humidity;BMP_temperature;BMP_pressure;BME280_temperature;BME280_humidity;BME280_pressure;Samples;Min_cycle;Max_cycle;Signal;HPM_P1;HPM_P2
2022/01/01 00:00:43;;;;;;;355.52;207.82;;;77.00;2227.20;;;;;;5078236;28;20054;-89
2022/01/01 00:03:09;;;;;;;343.35;202.18;;;77.00;2227.20;;;;;;5074376;28;20033;-86
2022/01/01 00:05:35;;;;;;;329.75;184.07;;;77.00;2227.20;;;;;;5058528;28;20021;-85
2022/01/01 00:08:03;;;;;;;296.38;167.73;;;77.10;2227.20;;;;;;5058389;28;20024;-86
2022/01/01 00:10:30;;;;;;;233.13;130.73;;;77.00;2227.20;;;;;;5057555;28;20039;-85
2022/01/01 00:12:56;;;;;;;228.75;125.82;;;77.00;2227.20;;;;;;5058307;28;20062;-87
2022/01/01 00:15:22;;;;;;;199.88;116.45;;;76.90;2227.20;;;;;;5057535;28;20452;-88
2022/01/01 00:17:48;;;;;;;191.85;113.15;;;76.90;2227.20;;;;;;5066784;28;20030;-86
2022/01/01 00:20:14;;;;;;;182.77;112.20;;;77.20;2227.20;;;;;;5077979;28;20475;-87
2022/01/01 00:22:41;;;;;;;222.13;131.32;;;76.80;2227.20;;;;;;5087278;28;20383;-84
2022/01/01 00:25:08;;;;;;;220.27;125.80;;;76.80;2227.20;;;;;;5098099;28;20411;-89
2022/01/01 00:27:35;;;;;;;313.73;173.05;;;76.80;2227.20;;;;;;5098301;28;20020;-87
2022/01/01 00:30:01;;;;;;;365.52;201.55;;;76.90;2227.20;;;;;;5097755;28;20066;-88
2022/01/01 00:32:27;;;;;;;384.27;228.35;;;76.90;2227.20;;;;;;5098319;28;20031;-85
2022/01/01 00:34:53;;;;;;;445.25;265.52;;;76.80;2227.20;;;;;;5099163;28;20074;-88
2022/01/01 00:37:19;;;;;;;502.73;306.83;;;76.90;2227.20;;;;;;5122197;28;20036;-86
2022/01/01 00:39:44;;;;;;;492.52;298.10;;;76.80;2201.60;;;;;;5107299;28;20051;-86
2022/01/01 00:42:10;;;;;;;517.88;323.15;;;76.90;2227.20;;;;;;5098744;28;20050;-90
2022/01/01 00:44:36;;;;;;;480.75;294.25;;;76.90;2227.20;;;;;;5098327;28;20023;-88
2022/01/01 00:47:03;;;;;;;421.17;256.95;;;77.00;2227.20;;;;;;5097642;28;20106;-88
2022/01/01 00:49:30;;;;;;;396.50;235.77;;;77.10;2227.20;;;;;;5097943;28;20031;-88
2022/01/01 00:51:56;;;;;;;374.50;219.73;;;77.00;2227.20;;;;;;5097216;28;20024;-88
2022/01/01 00:54:22;;;;;;;390.15;221.95;;;76.90;2227.20;;;;;;5097725;28;20024;-90
2022/01/01 00:56:51;;;;;;;358.63;205.85;;;76.90;2227.20;;;;;;5097265;28;20039;-88
2022/01/01 00:59:17;;;;;;;408.95;229.82;;;76.90;2227.20;;;;;;5098399;28;20065;-87
2022/01/01 01:01:43;;;;;;;334.77;192.50;;;76.90;2227.20;;;;;;5098197;28;20024;-86
2022/01/01 01:04:08;;;;;;;266.85;157.43;;;77.00;2227.20;;;;;;5097880;28;20573;-84
2022/01/01 01:06:34;;;;;;;213.80;124.68;;;77.10;2227.20;;;;;;5098225;28;20019;-87
2022/01/01 01:09:01;;;;;;;177.52;93.25;;;77.00;2227.20;;;;;;5098258;28;20462;-88
2022/01/01 01:11:27;;;;;;;163.38;86.35;;;76.90;2227.20;;;;;;5098125;28;20045;-87
2022/01/01 01:13:59;;;;;;;167.23;89.45;;;52.10;2227.20;;;;;;5098311;28;20038;-88
2022/01/01 01:16:26;;;;;;;161.25;90.18;;;76.80;2227.20;;;;;;5098258;28;20031;-85
2022/01/01 01:18:53;;;;;;;148.93;84.28;;;76.80;2150.40;;;;;;5115983;28;20019;-86
2022/01/01 01:21:23;;;;;;;165.38;88.63;;;76.80;2227.20;;;;;;5096929;28;20034;-88
2022/01/01 01:23:49;;;;;;;183.82;102.57;;;76.80;2227.20;;;;;;5097382;28;20050;-88
2022/01/01 01:26:15;;;;;;;168.00;99.78;;;76.80;2227.20;;;;;;5097659;28;20363;-87
2022/01/01 01:28:47;;;;;;;165.07;93.18;;;52.00;2227.20;;;;;;5097735;28;20012;-86
2022/01/01 01:31:13;;;;;;;158.43;91.40;;;52.10;2227.20;;;;;;5097784;28;20067;-86
2022/01/01 01:33:39;;;;;;;160.15;92.53;;;52.10;2227.20;;;;;;5097472;28;20027;-87
2022/01/01 01:36:04;;;;;;;176.15;103.47;;;76.80;2227.20;;;;;;5097849;28;20020;-87
2022/01/01 01:38:36;;;;;;;160.20;92.25;;;76.80;2227.20;;;;;;5097331;28;20633;-88
2022/01/01 01:41:05;;;;;;;155.18;87.50;;;76.80;2227.20;;;;;;5097572;28;20023;-87
2022/01/01 01:43:32;;;;;;;166.95;99.68;;;76.80;2227.20;;;;;;5097327;28;20366;-87
2022/01/01 01:46:03;;;;;;;154.18;91.15;;;52.10;2227.20;;;;;;5097418;28;20019;-87
2022/01/01 01:48:29;;;;;;;147.82;83.55;;;76.80;2227.20;;;;;;5097523;28;20027;-88
2022/01/01 01:50:56;;;;;;;151.38;85.78;;;76.80;2227.20;;;;;;5097572;28;20015;-88
2022/01/01 01:53:22;;;;;;;121.32;66.28;;;52.10;2227.20;;;;;;5097106;28;20466;-87
2022/01/01 01:55:49;;;;;;;155.23;80.35;;;76.80;2227.20;;;;;;5097428;28;20359;-86
2022/01/01 01:58:16;;;;;;;178.43;99.28;;;76.80;2227.20;;;;;;5097046;28;20054;-88
2022/01/01 02:03:26;;;;;;;128.35;69.03;;;76.80;2227.20;;;;;;5115437;28;20114;-87
2022/01/01 02:05:53;;;;;;;183.38;89.45;;;76.90;2227.20;;;;;;5097136;28;20035;-88
2022/01/01 02:08:19;;;;;;;148.73;81.18;;;52.10;2227.20;;;;;;5096949;28;20549;-88
2022/01/01 02:10:51;;;;;;;178.07;97.22;;;52.10;2227.20;;;;;;5097173;28;20069;-86
2022/01/01 02:13:24;;;;;;;177.75;100.45;;;52.10;2227.20;;;;;;5096785;28;20110;-86
2022/01/01 02:18:16;;;;;;;142.30;82.10;;;52.00;2227.20;;;;;;5114944;28;20027;-88
2022/01/01 02:20:49;;;;;;;159.02;91.45;;;52.10;2227.20;;;;;;5096535;28;20482;-88
2022/01/01 02:23:15;;;;;;;;;;;52.10;2227.20;;;;;;5096755;28;20075;-87
2022/01/01 02:25:41;;;;;;;135.77;73.47;;;76.80;2227.20;;;;;;5096657;28;19907;-87
2022/01/01 02:28:10;;;;;;;126.22;71.90;;;52.10;2227.20;;;;;;5096562;28;20055;-87
2022/01/01 02:30:36;;;;;;;137.75;75.75;;;76.80;2227.20;;;;;;5096786;28;20097;-87
2022/01/01 02:33:02;;;;;;;127.32;70.68;;;52.10;2227.20;;;;;;5096013;28;20062;-87
2022/01/01 02:35:28;;;;;;;108.72;63.78;;;52.10;2227.20;;;;;;5096510;28;20024;-86
2022/01/01 02:37:54;;;;;;;111.68;65.97;;;76.80;2227.20;;;;;;5096592;28;20111;-86
2022/01/01 02:40:20;;;;;;;132.10;75.15;;;52.10;2227.20;;;;;;5096819;28;20047;-87
2022/01/01 02:42:46;;;;;;;107.20;63.70;;;52.00;2227.20;;;;;;5096484;28;20038;-87
2022/01/01 02:45:14;;;;;;;109.60;61.05;;;52.10;2227.20;;;;;;5096509;28;20020;-86
2022/01/01 02:47:41;;;;;;;99.47;59.40;;;52.00;2227.20;;;;;;5096485;28;20023;-87
2022/01/01 02:50:08;;;;;;;120.43;66.57;;;52.00;2227.20;;;;;;5114166;28;20024;-87
2022/01/01 02:52:34;;;;;;;107.88;60.65;;;52.10;2227.20;;;;;;5096500;28;20023;-87
2022/01/01 02:55:00;;;;;;;124.43;71.97;;;51.90;2227.20;;;;;;5096080;28;20027;-87
2022/01/01 02:57:26;;;;;;;114.78;62.72;;;52.00;2227.20;;;;;;5114485;28;20019;-87
2022/01/01 02:59:52;;;;;;;135.60;71.65;;;52.00;2227.20;;;;;;5096522;28;20020;-86
2022/01/01 03:02:18;;;;;;;124.60;72.65;;;52.10;2227.20;;;;;;5096380;28;20416;-89
2022/01/01 03:04:43;;;;;;;137.25;80.60;;;76.80;2227.20;;;;;;5096107;28;20504;-87
2022/01/01 03:07:09;;;;;;;142.02;83.75;;;52.10;2227.20;;;;;;5096305;28;20135;-88
2022/01/01 03:09:35;;;;;;;166.75;95.78;;;76.80;2227.20;;;;;;5096216;28;20023;-84
2022/01/01 03:12:19;;;;;;;153.73;90.72;;;76.90;2227.20;;;;;;5096292;28;20024;-86
2022/01/01 03:14:45;;;;;;;146.70;89.07;;;76.90;2227.20;;;;;;5114645;28;20020;-87
2022/01/01 03:17:11;;;;;;;158.05;95.28;;;77.00;2227.20;;;;;;5096257;28;20473;-88
2022/01/01 03:19:37;;;;;;;140.25;87.47;;;77.00;2227.20;;;;;;5096361;28;20046;-86
2022/01/01 03:22:04;;;;;;;154.60;94.07;;;77.10;2227.20;;;;;;5096023;28;20039;-88
2022/01/01 03:24:30;;;;;;;177.65;102.50;;;77.10;2227.20;;;;;;5096134;28;20028;-88
2022/01/01 03:26:56;;;;;;;221.68;125.63;;;77.70;2227.20;;;;;;5096164;28;20057;-87
2022/01/01 03:29:22;;;;;;;218.25;129.95;;;77.20;2227.20;;;;;;5095820;28;20012;-87
2022/01/01 03:31:48;;;;;;;225.15;135.55;;;77.20;2227.20;;;;;;5095912;28;20081;-85
2022/01/01 03:34:13;;;;;;;182.48;116.20;;;77.20;2227.20;;;;;;5096022;28;20023;-86
2022/01/01 03:36:39;;;;;;;187.18;113.28;;;77.30;2227.20;;;;;;5096090;28;20459;-86
2022/01/01 03:39:06;;;;;;;175.93;108.50;;;77.20;2227.20;;;;;;5095986;28;20030;-85
2022/01/01 03:41:32;;;;;;;174.45;107.07;;;77.30;2227.20;;;;;;5095976;28;20051;-87
2022/01/01 03:43:58;;;;;;;181.23;109.50;;;77.30;2227.20;;;;;;5096009;28;20035;-86
2022/01/01 03:46:24;;;;;;;160.20;104.55;;;77.20;2227.20;;;;;;5098726;28;20019;-87
2022/01/01 03:48:49;;;;;;;177.70;106.43;;;77.20;2227.20;;;;;;5099694;28;20020;-85
2022/01/01 03:51:15;;;;;;;153.35;96.85;;;77.20;2227.20;;;;;;5117631;28;20098;-87
2022/01/01 03:53:41;;;;;;;147.55;89.80;;;77.20;2227.20;;;;;;5099264;28;20469;-87
2022/01/01 03:56:07;;;;;;;150.57;92.70;;;77.20;2227.20;;;;;;5099713;28;20031;-86
2022/01/01 03:58:33;;;;;;;164.35;97.50;;;77.20;2227.20;;;;;;5099160;28;20447;-84
2022/01/01 04:00:59;;;;;;;150.77;89.95;;;77.20;2227.20;;;;;;5099378;28;20030;-87
2022/01/01 04:03:25;;;;;;;198.73;106.20;;;77.20;2227.20;;;;;;5099413;28;20114;-86
2022/01/01 04:05:51;;;;;;;143.05;82.35;;;77.00;2227.20;;;;;;5099213;28;20081;-86
2022/01/01 04:08:17;;;;;;;158.27;88.95;;;77.00;2227.20;;;;;;5099340;28;20022;-88
2022/01/01 04:10:42;;;;;;;110.10;69.38;;;77.00;2227.20;;;;;;5110100;28;20023;-87
2022/01/01 04:13:10;;;;;;;121.82;70.20;;;77.00;2227.20;;;;;;5120647;28;20034;-88
2022/01/01 04:15:38;;;;;;;88.28;55.50;;;76.90;2227.20;;;;;;5099838;28;20446;-87
2022/01/01 04:18:11;;;;;;;100.22;59.88;;;76.90;2227.20;;;;;;5100251;28;20470;-88
2022/01/01 04:20:37;;;;;;;110.15;61.78;;;76.80;2227.20;;;;;;5099166;28;20057;-87
2022/01/01 04:23:08;;;;;;;89.25;53.00;;;76.80;2227.20;;;;;;5098818;28;20360;-87
2022/01/01 04:25:34;;;;;;;89.65;54.25;;;52.10;2227.20;;;;;;5099071;28;20426;-86
2022/01/01 04:27:59;;;;;;;87.22;53.95;;;52.00;2227.20;;;;;;5098625;28;20058;-85
2022/01/01 04:30:28;;;;;;;85.22;52.53;;;52.00;2227.20;;;;;;5098853;28;20110;-87
2022/01/01 04:32:58;;;;;;;83.30;50.05;;;51.90;2227.20;;;;;;5098856;28;20519;-87
2022/01/01 04:35:24;;;;;;;79.88;47.40;;;52.00;2227.20;;;;;;5098590;28;20020;-88
2022/01/01 04:37:50;;;;;;;95.28;54.30;;;52.00;1894.40;;;;;;5116776;28;20031;-86
2022/01/01 04:40:16;;;;;;;99.53;59.78;;;51.80;2227.20;;;;;;5098688;28;20027;-87
2022/01/01 04:42:42;;;;;;;95.78;56.58;;;51.70;2227.20;;;;;;5116358;28;20027;-88
2022/01/01 04:45:09;;;;;;;100.57;57.85;;;76.90;2227.20;;;;;;5098625;28;20027;-88
2022/01/01 04:47:34;;;;;;;96.60;56.13;;;76.80;2227.20;;;;;;5098235;28;20020;-85
2022/01/01 04:50:03;;;;;;;94.15;56.70;;;52.00;1996.80;;;;;;5098425;28;20030;-87
2022/01/01 04:52:29;;;;;;;116.30;71.70;;;52.00;2227.20;;;;;;5098245;28;20027;-86
2022/01/01 04:54:55;;;;;;;121.55;68.32;;;51.90;2227.20;;;;;;5098101;28;20062;-87
2022/01/01 04:57:24;;;;;;;145.10;85.90;;;51.80;1843.20;;;;;;5098283;28;20054;-88
2022/01/01 04:59:50;;;;;;;134.32;73.38;;;51.70;2227.20;;;;;;5098333;28;20366;-87
2022/01/01 05:02:16;;;;;;;151.93;83.32;;;51.80;2227.20;;;;;;5098026;28;20028;-88
2022/01/01 05:04:42;;;;;;;134.20;76.13;;;51.80;2227.20;;;;;;5098097;28;20465;-87
2022/01/01 05:07:08;;;;;;;133.35;72.18;;;51.80;2227.20;;;;;;5098172;28;20016;-86
2022/01/01 05:09:34;;;;;;;142.57;80.20;;;51.80;2227.20;;;;;;5098255;28;20023;-89
2022/01/01 05:11:59;;;;;;;119.57;66.90;;;51.80;2022.40;;;;;;5097961;28;20451;-87
2022/01/01 05:14:25;;;;;;;102.47;60.03;;;51.70;2227.20;;;;;;5097846;28;20019;-87
2022/01/01 05:16:52;;;;;;;101.43;58.90;;;51.80;2227.20;;;;;;5116145;28;20020;-87
2022/01/01 05:19:19;;;;;;;122.85;65.07;;;51.70;2227.20;;;;;;5098048;28;20020;-88
2022/01/01 05:21:46;;;;;;;113.53;65.85;;;51.80;2227.20;;;;;;5097818;28;20455;-87
2022/01/01 05:24:17;;;;;;;143.23;84.90;;;51.90;2227.20;;;;;;5097935;28;20020;-87
2022/01/01 05:26:44;;;;;;;209.30;106.07;;;52.00;2227.20;;;;;;5098168;28;20114;-87
2022/01/01 05:29:09;;;;;;;113.68;61.13;;;51.80;2227.20;;;;;;5097853;28;20035;-87
2022/01/01 05:31:35;;;;;;;193.57;89.90;;;51.60;2227.20;;;;;;5097416;28;20374;-87
2022/01/01 05:34:03;;;;;;;109.05;64.35;;;51.60;2227.20;;;;;;5097803;28;20040;-88
2022/01/01 05:36:29;;;;;;;89.53;53.05;;;51.60;2227.20;;;;;;5097442;28;20522;-87
2022/01/01 05:38:55;;;;;;;100.88;58.70;;;51.50;2227.20;;;;;;5097512;28;20154;-87
2022/01/01 05:41:21;;;;;;;106.95;62.97;;;26.50;2201.60;;;;;;5097697;28;20367;-88
2022/01/01 05:43:47;;;;;;;93.57;55.03;;;51.50;2227.20;;;;;;5097158;28;20107;-87
2022/01/01 05:46:13;;;;;;;89.50;53.05;;;51.40;2227.20;;;;;;5097503;28;20027;-87
2022/01/01 05:48:39;;;;;;;92.70;52.47;;;51.40;2227.20;;;;;;5097414;28;20407;-88
2022/01/01 05:51:06;;;;;;;84.38;53.22;;;51.50;2227.20;;;;;;5096993;28;20047;-86
2022/01/01 05:53:32;;;;;;;76.75;47.38;;;51.60;2227.20;;;;;;5097322;28;20015;-87
2022/01/01 05:55:58;;;;;;;80.03;52.30;;;51.60;2227.20;;;;;;5097197;28;20110;-87
2022/01/01 05:58:24;;;;;;;114.00;60.67;;;51.60;2227.20;;;;;;5097073;28;20150;-87
2022/01/01 06:00:49;;;;;;;92.05;55.30;;;51.70;2227.20;;;;;;5097378;28;20028;-87
2022/01/01 06:03:17;;;;;;;86.55;51.42;;;51.70;2227.20;;;;;;5097068;28;20433;-87
2022/01/01 06:05:43;;;;;;;154.25;76.60;;;51.60;2227.20;;;;;;5097240;28;20371;-87
2022/01/01 06:08:09;;;;;;;113.32;62.25;;;51.60;2227.20;;;;;;5096718;28;20055;-88
2022/01/01 06:10:35;;;;;;;97.75;54.22;;;51.70;2227.20;;;;;;5097091;28;20352;-86
2022/01/01 06:13:04;;;;;;;94.85;52.25;;;51.70;2227.20;;;;;;5096716;28;20028;-85
2022/01/01 06:15:30;;;;;;;82.13;52.28;;;51.60;2227.20;;;;;;5097018;28;20027;-87
2022/01/01 06:17:55;;;;;;;97.80;60.42;;;51.70;2227.20;;;;;;5096680;28;20093;-86
2022/01/01 06:20:21;;;;;;;103.72;66.90;;;51.80;2227.20;;;;;;5096407;28;20046;-88
2022/01/01 06:22:47;;;;;;;98.82;61.92;;;51.60;2227.20;;;;;;5096621;28;20054;-88
2022/01/01 06:25:13;;;;;;;105.72;64.25;;;51.60;2227.20;;;;;;5096849;28;20020;-87
2022/01/01 06:27:39;;;;;;;106.43;65.15;;;51.60;2227.20;;;;;;5096691;28;20015;-87
2022/01/01 06:30:05;;;;;;;101.40;60.08;;;51.70;2227.20;;;;;;5096776;28;20019;-87
2022/01/01 06:32:31;;;;;;;92.25;58.50;;;51.80;2227.20;;;;;;5096682;28;20054;-86
2022/01/01 06:34:58;;;;;;;91.57;53.67;;;51.80;2227.20;;;;;;5096605;28;20451;-87
2022/01/01 06:37:24;;;;;;;81.40;51.88;;;51.90;2227.20;;;;;;5114670;28;20016;-87
2022/01/01 06:39:50;;;;;;;87.40;53.55;;;51.80;2227.20;;;;;;5096595;28;20076;-86
2022/01/01 06:42:16;;;;;;;112.32;65.50;;;51.80;2227.20;;;;;;5096607;28;20049;-87
2022/01/01 06:44:42;;;;;;;96.63;61.53;;;51.70;2227.20;;;;;;5096549;28;20482;-87
2022/01/01 06:47:09;;;;;;;157.20;87.10;;;51.80;2227.20;;;;;;5096482;28;20026;-88
2022/01/01 06:49:35;;;;;;;116.95;68.93;;;51.90;2073.60;;;;;;5096568;28;20022;-86
2022/01/01 06:52:01;;;;;;;136.18;87.38;;;51.90;2227.20;;;;;;5096359;28;20024;-87
2022/01/01 06:54:27;;;;;;;97.93;58.47;;;52.00;2227.20;;;;;;5113269;28;20106;-87
2022/01/01 06:56:53;;;;;;;71.20;48.03;;;52.00;2227.20;;;;;;5096740;28;20058;-88
2022/01/01 06:59:19;;;;;;;91.32;59.72;;;52.00;2227.20;;;;;;5096789;28;20020;-88
2022/01/01 07:01:44;;;;;;;101.53;66.35;;;52.10;2227.20;;;;;;5096190;28;20489;-89
2022/01/01 07:04:13;;;;;;;102.85;63.33;;;76.80;2227.20;;;;;;5096614;28;20023;-90
2022/01/01 07:06:39;;;;;;;85.38;54.13;;;76.90;2227.20;;;;;;5096072;28;20024;-86
2022/01/01 07:09:06;;;;;;;78.88;48.10;;;76.90;2227.20;;;;;;5096036;28;20024;-87
2022/01/01 07:11:31;;;;;;;74.70;48.92;;;77.00;2227.20;;;;;;5096275;28;20134;-87
2022/01/01 07:13:57;;;;;;;77.10;49.92;;;77.00;2227.20;;;;;;5096115;28;20058;-85
2022/01/01 07:16:23;;;;;;;74.88;52.42;;;77.00;2227.20;;;;;;5095985;28;20020;-85
2022/01/01 07:18:49;;;;;;;88.20;57.50;;;77.20;2227.20;;;;;;5114547;28;20026;-90
2022/01/01 07:21:15;;;;;;;107.13;66.95;;;77.20;2227.20;;;;;;5099196;28;20024;-85
2022/01/01 07:23:42;;;;;;;214.68;100.15;;;77.20;2227.20;;;;;;5118295;28;20043;-86
2022/01/01 07:26:08;;;;;;;156.88;80.00;;;77.30;2227.20;;;;;;5099769;28;20055;-87
2022/01/01 07:28:34;;;;;;;165.82;107.35;;;77.30;2227.20;;;;;;5117810;28;20024;-87
2022/01/01 07:31:00;;;;;;;109.18;67.70;;;77.20;2227.20;;;;;;5118173;28;20537;-83
2022/01/01 07:33:26;;;;;;;165.48;97.57;;;77.20;2227.20;;;;;;5117596;28;20065;-87
2022/01/01 07:35:53;;;;;;;167.90;99.63;;;77.20;2227.20;;;;;;5132752;28;20020;-87
2022/01/01 07:38:19;;;;;;;102.32;68.25;;;77.20;2227.20;;;;;;5124808;28;20012;-86
2022/01/01 07:40:45;;;;;;;82.35;58.75;;;77.20;2227.20;;;;;;5124622;28;20049;-89
2022/01/01 07:43:15;;;;;;;88.07;56.47;;;77.20;2227.20;;;;;;5108577;28;20141;-89
2022/01/01 07:45:42;;;;;;;89.38;56.08;;;77.30;2227.20;;;;;;5100656;28;20031;-86
2022/01/01 07:48:09;;;;;;;82.05;55.00;;;77.10;2227.20;;;;;;5100551;28;20020;-89
2022/01/01 07:50:35;;;;;;;79.57;54.97;;;77.20;2227.20;;;;;;5100358;28;20450;-89
2022/01/01 07:53:02;;;;;;;81.07;57.05;;;77.30;2227.20;;;;;;5100083;28;20581;-89
2022/01/01 07:55:28;;;;;;;75.18;51.50;;;77.30;2227.20;;;;;;5100067;28;20024;-89
2022/01/01 07:57:54;;;;;;;74.88;50.65;;;77.40;2227.20;;;;;;5099733;28;20470;-89
2022/01/01 08:00:20;;;;;;;76.53;49.72;;;77.40;2227.20;;;;;;5099771;28;20035;-90
2022/01/01 08:02:47;;;;;;;69.35;50.40;;;77.50;2227.20;;;;;;5099857;28;20031;-88
2022/01/01 08:05:16;;;;;;;79.95;56.35;;;77.60;2227.20;;;;;;5099570;28;20446;-89
2022/01/01 08:07:42;;;;;;;76.18;54.53;;;77.60;2227.20;;;;;;5099454;28;20057;-88
2022/01/01 08:10:08;;;;;;;93.10;62.17;;;102.40;2227.20;;;;;;5099579;28;20023;-91
2022/01/01 08:12:34;;;;;;;93.10;60.85;;;102.50;2227.20;;;;;;5099535;28;20122;-89
2022/01/01 08:15:00;;;;;;;116.40;78.40;;;102.60;2227.20;;;;;;5099499;28;20023;-90
2022/01/01 08:17:26;;;;;;;90.70;65.05;;;102.80;2227.20;;;;;;5099341;28;20016;-88
2022/01/01 08:19:52;;;;;;;96.78;63.05;;;102.80;2227.20;;;;;;5099288;28;20347;-87
2022/01/01 08:22:18;;;;;;;80.72;57.45;;;102.80;2227.20;;;;;;5099117;28;20043;-87
2022/01/01 08:24:45;;;;;;;77.28;54.45;;;102.90;2227.20;;;;;;5099261;28;20024;-91
2022/01/01 08:27:12;;;;;;;74.90;51.75;;;103.00;2227.20;;;;;;5100974;28;20023;-87
2022/01/01 08:29:37;;;;;;;83.50;56.63;;;103.10;2227.20;;;;;;5100473;28;20336;-87
2022/01/01 08:32:03;;;;;;;89.45;57.25;;;103.20;2227.20;;;;;;5098635;28;20114;-85
2022/01/01 08:34:30;;;;;;;87.03;57.40;;;103.30;2227.20;;;;;;5098965;28;20473;-86
2022/01/01 08:36:55;;;;;;;95.30;64.10;;;128.10;2252.80;;;;;;5098962;28;20024;-86
2022/01/01 08:39:21;;;;;;;72.68;50.13;;;128.40;2252.80;;;;;;5098626;28;20016;-88
2022/01/01 08:41:48;;;;;;;66.20;48.47;;;128.50;2252.80;;;;;;5098995;28;20047;-87
2022/01/01 08:44:15;;;;;;;81.30;52.45;;;128.70;2252.80;;;;;;5098836;28;20055;-87
2022/01/01 08:46:41;;;;;;;98.45;66.40;;;128.80;2252.80;;;;;;5098704;28;20442;-85
2022/01/01 08:49:07;;;;;;;92.75;64.72;;;153.60;2252.80;;;;;;5117088;28;20022;-82
2022/01/01 08:51:35;;;;;;;83.47;57.10;;;153.90;2201.60;;;;;;5098613;28;20404;-86
2022/01/01 08:54:01;;;;;;;71.03;51.42;;;154.00;2252.80;;;;;;5079560;28;20050;-87
2022/01/01 08:56:28;;;;;;;76.85;50.97;;;153.90;2252.80;;;;;;5091753;28;20024;-84
2022/01/01 08:58:54;;;;;;;73.55;54.95;;;154.00;2252.80;;;;;;5091727;28;20020;-87
2022/01/01 09:01:19;;;;;;;66.95;47.45;;;154.00;2252.80;;;;;;5074353;28;20032;-84
2022/01/01 09:03:46;;;;;;;58.47;43.92;;;153.90;2252.80;;;;;;5074669;28;20370;-84
2022/01/01 09:06:12;;;;;;;74.40;53.22;;;154.00;2252.80;;;;;;5057630;28;20016;-85
2022/01/01 09:08:41;;;;;;;70.70;51.28;;;154.20;2252.80;;;;;;5057770;28;20028;-83
2022/01/01 09:11:09;;;;;;;67.88;50.50;;;154.30;2201.60;;;;;;5074583;28;20071;-85
2022/01/01 09:13:35;;;;;;;64.10;46.58;;;154.50;2252.80;;;;;;5091436;28;20020;-84
2022/01/01 09:16:01;;;;;;;75.13;50.22;;;179.30;2252.80;;;;;;5057747;28;20439;-83
2022/01/01 09:18:27;;;;;;;118.20;77.78;;;179.50;2252.80;;;;;;5090791;28;20071;-81
2022/01/01 09:20:53;;;;;;;115.93;75.57;;;179.60;2252.80;;;;;;5090641;28;20097;-83
2022/01/01 09:23:19;;;;;;;94.70;63.25;;;179.70;2252.80;;;;;;5090654;28;20499;-85
2022/01/01 09:25:45;;;;;;;89.60;57.30;;;179.80;2252.80;;;;;;5056955;28;20059;-83
2022/01/01 09:28:11;;;;;;;85.63;56.45;;;180.00;2252.80;;;;;;5090425;28;20158;-84
2022/01/01 09:30:37;;;;;;;72.63;50.50;;;204.80;2252.80;;;;;;5074428;28;20455;-84
2022/01/01 09:33:03;;;;;;;68.80;47.33;;;205.00;2252.80;;;;;;5090460;28;20112;-85
2022/01/01 09:35:29;;;;;;;75.68;53.05;;;205.20;2252.80;;;;;;5090513;28;20111;-86
2022/01/01 09:37:55;;;;;;;79.65;56.25;;;205.50;2252.80;;;;;;5056381;28;20028;-85
2022/01/01 09:40:21;;;;;;;81.18;54.35;;;205.60;2252.80;;;;;;5057097;28;20017;-87
2022/01/01 09:42:48;;;;;;;54.90;41.25;;;205.70;2252.80;;;;;;5089426;28;20456;-86
2022/01/01 09:45:14;;;;;;;60.05;42.60;;;230.50;2252.80;;;;;;5090470;28;20016;-82
2022/01/01 09:47:42;;;;;;;60.35;42.78;;;230.60;2252.80;;;;;;5073442;28;20031;-85
2022/01/01 09:50:08;;;;;;;60.80;42.47;;;230.70;2252.80;;;;;;5090283;28;20106;-83
2022/01/01 09:52:34;;;;;;;83.53;59.25;;;230.80;2252.80;;;;;;5090375;28;20031;-86
2022/01/01 09:55:00;;;;;;;79.35;56.10;;;230.80;2252.80;;;;;;5090452;28;20111;-86
2022/01/01 09:57:26;;;;;;;73.65;52.90;;;230.60;2252.80;;;;;;5074607;28;20056;-85
2022/01/01 09:59:52;;;;;;;69.47;47.22;;;230.60;2252.80;;;;;;5090338;28;20340;-87
2022/01/01 10:02:19;;;;;;;59.30;45.67;;;230.50;2252.80;;;;;;5090239;28;20448;-85
2022/01/01 10:04:50;;;;;;;64.63;46.28;;;230.40;2252.80;;;;;;5090176;28;20016;-85
2022/01/01 10:07:16;;;;;;;65.57;47.13;;;230.40;2252.80;;;;;;5074136;28;20443;-84
2022/01/01 10:09:43;;;;;;;55.15;41.88;;;205.30;2252.80;;;;;;5090016;28;20513;-84
2022/01/01 10:12:13;;;;;;;59.53;45.70;;;230.40;2252.80;;;;;;5056382;28;20024;-86
2022/01/01 10:14:41;;;;;;;57.55;41.28;;;230.40;2252.80;;;;;;5090344;28;20095;-85
2022/01/01 10:17:15;;;;;;;67.72;51.00;;;230.40;2252.80;;;;;;5089797;28;20016;-86
2022/01/01 10:19:41;;;;;;;85.30;62.90;;;230.40;2252.80;;;;;;5089877;28;20090;-85
2022/01/01 10:22:11;;;;;;;94.85;65.07;;;230.40;2252.80;;;;;;5089752;28;20079;-85
2022/01/01 10:27:42;;;;;;;104.93;73.18;;;205.70;2252.80;;;;;;5074284;28;20013;-85
2022/01/01 10:27:45;;;;;;;107.60;72.45;;;205.70;2252.80;;;;;;5074308;28;20459;-84
2022/01/01 10:30:38;;;;;;;98.15;68.78;;;230.40;2252.80;;;;;;5089976;28;20368;-84
2022/01/01 10:33:05;;;;;;;85.35;59.63;;;230.40;2252.80;;;;;;5074290;28;20040;-82
2022/01/01 10:35:41;;;;;;;82.75;58.05;;;230.40;2252.80;;;;;;5056124;28;20513;-84
2022/01/01 10:38:22;;;;;;;77.57;56.42;;;230.40;2252.80;;;;;;5089597;28;20025;-83
2022/01/01 10:40:53;;;;;;;78.50;57.60;;;230.40;2252.80;;;;;;5081643;28;20115;-83
2022/01/01 10:43:20;;;;;;;67.72;50.63;;;230.40;2252.80;;;;;;5089792;28;20028;-87
2022/01/01 10:45:47;;;;;;;77.75;55.17;;;205.70;2252.80;;;;;;5089894;28;20481;-84
2022/01/01 10:48:23;;;;;;;76.47;56.65;;;205.70;2252.80;;;;;;5089680;28;20077;-84
2022/01/01 10:50:51;;;;;;;100.03;71.93;;;205.70;2073.60;;;;;;5089478;28;20566;-85
2022/01/01 10:53:26;;;;;;;88.70;63.83;;;205.50;2252.80;;;;;;5072916;28;20414;-84
2022/01/01 10:56:00;;;;;;;88.63;64.85;;;205.40;2252.80;;;;;;5093939;28;20055;-84
2022/01/01 10:58:28;;;;;;;79.40;59.35;;;205.30;2252.80;;;;;;5077804;28;20023;-86
2022/01/01 11:01:03;;;;;;;83.38;62.58;;;205.30;2252.80;;;;;;5077668;28;20548;-85
2022/01/01 11:03:34;;;;;;;82.45;60.90;;;205.20;2252.80;;;;;;5093754;28;20463;-84
2022/01/01 11:06:12;;;;;;;95.43;75.72;;;205.30;2252.80;;;;;;5093479;28;20031;-85
2022/01/01 11:08:40;;;;;;;97.47;78.90;;;205.30;2252.80;;;;;;5093214;28;20044;-82
2022/01/01 11:11:06;;;;;;;157.63;115.43;;;205.30;2252.80;;;;;;5093569;28;20016;-84
2022/01/01 11:13:33;;;;;;;123.70;88.00;;;205.20;2176.00;;;;;;5093424;28;20027;-86
2022/01/01 11:15:59;;;;;;;105.50;77.93;;;205.40;2252.80;;;;;;5093512;28;20021;-85
2022/01/01 11:18:26;;;;;;;101.03;72.63;;;205.50;2252.80;;;;;;5093252;28;20106;-84
2022/01/01 11:20:52;;;;;;;90.82;68.90;;;205.50;2252.80;;;;;;5093119;28;20444;-86
2022/01/01 11:23:20;;;;;;;95.95;71.00;;;205.60;2252.80;;;;;;5104528;28;20170;-86
2022/01/01 11:25:47;;;;;;;115.68;83.88;;;205.60;2252.80;;;;;;5059396;28;20460;-84
2022/01/01 11:28:15;;;;;;;137.40;102.32;;;205.60;2252.80;;;;;;5059235;28;20054;-83
2022/01/01 11:30:51;;;;;;;119.93;94.82;;;205.70;2252.80;;;;;;5059693;28;20518;-86
2022/01/01 11:33:20;;;;;;;105.07;80.20;;;205.70;2252.80;;;;;;5093332;28;20020;-86
2022/01/01 11:35:55;;;;;;;81.72;62.60;;;205.70;2099.20;;;;;;5059480;28;20048;-83
2022/01/01 11:38:22;;;;;;;74.18;59.60;;;205.60;2252.80;;;;;;5059606;28;20024;-85
2022/01/01 11:40:54;;;;;;;74.20;58.85;;;205.50;2252.80;;;;;;5059202;28;20059;-83
2022/01/01 11:43:46;;;;;;;75.03;58.22;;;205.30;2252.80;;;;;;5059135;28;20032;-83
2022/01/01 11:46:30;;;;;;;75.30;58.58;;;205.40;2252.80;;;;;;5076543;28;20526;-81
2022/01/01 11:48:58;;;;;;;70.28;54.70;;;205.40;2252.80;;;;;;5051850;28;20016;-82
2022/01/01 11:51:32;;;;;;;88.60;64.75;;;205.40;2252.80;;;;;;5058952;28;20100;-82
2022/01/01 11:54:10;;;;;;;103.18;72.38;;;205.40;2252.80;;;;;;5058992;28;20032;-86
2022/01/01 11:56:56;;;;;;;106.85;76.00;;;205.50;2252.80;;;;;;5058803;28;20028;-82
2022/01/01 11:59:37;;;;;;;84.47;63.55;;;205.60;2252.80;;;;;;5058917;28;20078;-83
2022/01/01 12:02:05;;;;;;;83.88;62.17;;;205.60;2252.80;;;;;;5058342;28;20035;-83
2022/01/01 12:04:38;;;;;;;95.53;68.78;;;205.60;2252.80;;;;;;5058590;28;20020;-84